createdAt,value
2023-02-02T00:11:18.853Z,970.63
2023-02-02T00:26:21.168Z,970.77
2023-02-02T00:41:23.540Z,970.87
2023-02-02T00:56:25.762Z,970.89
2023-02-02T01:11:27.986Z,971.06
2023-02-02T01:26:30.216Z,971.28
2023-02-02T01:41:32.497Z,971.17
2023-02-02T01:56:34.750Z,970.95
2023-02-02T02:11:37.193Z,970.82
2023-02-02T02:26:39.427Z,971.08
2023-02-02T02:41:41.701Z,971.21
2023-02-02T02:56:43.961Z,971.19
2023-02-02T03:11:46.132Z,971.39
2023-02-02T03:26:48.614Z,971.6
2023-02-02T03:41:50.949Z,971.71
2023-02-02T03:56:53.175Z,971.77
2023-02-02T04:11:55.391Z,972
2023-02-02T04:26:57.817Z,972.27
2023-02-02T04:42:00.039Z,972.3
2023-02-02T04:57:02.223Z,972.48
2023-02-02T05:12:04.445Z,972.47
2023-02-02T05:27:06.719Z,972.63
2023-02-02T05:42:08.941Z,972.6
2023-02-02T05:57:11.336Z,972.64
2023-02-02T06:12:14.049Z,972.75
2023-02-02T06:27:16.377Z,972.87
2023-02-02T06:42:21.665Z,973.05
2023-02-02T06:57:24.356Z,973.18
2023-02-02T07:12:26.574Z,973.16
2023-02-02T07:27:28.830Z,973.16
2023-02-02T07:42:31.000Z,973.18
2023-02-02T07:57:33.273Z,973.27
2023-02-02T08:12:35.756Z,973.34
2023-02-02T08:27:38.137Z,973.34
2023-02-02T08:42:40.397Z,973.38
2023-02-02T08:57:42.649Z,973.46
2023-02-02T09:12:44.878Z,973.49
2023-02-02T09:27:47.222Z,973.48
2023-02-02T09:42:49.475Z,973.32
2023-02-02T09:57:51.934Z,973.33
2023-02-02T10:12:54.186Z,973.81
2023-02-02T10:27:56.438Z,973.85
2023-02-02T10:42:58.757Z,974.15
2023-02-02T10:58:01.081Z,973.97
2023-02-02T11:13:03.277Z,973.88
2023-02-02T11:28:05.857Z,974.05
2023-02-02T11:43:08.090Z,974.04
2023-02-02T11:58:12.015Z,973.96
2023-02-02T12:13:14.395Z,974.07
2023-02-02T12:28:16.698Z,974.01
2023-02-02T12:43:18.893Z,974.08
2023-02-02T12:58:21.224Z,973.96
2023-02-02T13:13:23.443Z,973.84
2023-02-02T13:28:25.643Z,973.83
2023-02-02T13:43:27.885Z,973.81
2023-02-02T13:58:30.058Z,973.65
2023-02-02T14:13:32.205Z,973.8
2023-02-02T14:28:34.442Z,973.83
2023-02-02T14:43:36.700Z,973.88
2023-02-02T14:58:38.926Z,973.68
2023-02-02T15:13:41.098Z,973.77
2023-02-02T15:28:43.261Z,973.78
2023-02-02T15:43:45.590Z,974.01
2023-02-02T15:58:48.004Z,974.02
2023-02-02T16:13:50.258Z,974.04
2023-02-02T16:28:52.559Z,974.22
2023-02-02T16:43:54.702Z,974.21
2023-02-02T16:58:57.146Z,974.25
2023-02-02T17:13:59.629Z,974.26
2023-02-02T17:29:01.820Z,974.32
2023-02-02T17:44:03.971Z,974.23
2023-02-02T17:59:06.099Z,974.15
2023-02-02T18:14:08.420Z,974.22
2023-02-02T18:29:10.590Z,974.4
2023-02-02T18:44:12.822Z,974.47
2023-02-02T18:59:14.986Z,974.23
2023-02-02T19:14:17.128Z,974.09
2023-02-02T19:29:19.489Z,974.03
2023-02-02T19:44:21.687Z,973.98
2023-02-02T19:59:23.867Z,973.92
2023-02-02T20:14:26.210Z,973.81
2023-02-02T20:29:28.577Z,973.66
2023-02-02T20:44:30.904Z,973.49
2023-02-02T20:59:33.070Z,973.27
2023-02-02T21:14:35.288Z,973.05
2023-02-02T21:29:37.413Z,972.83
2023-02-02T21:44:39.770Z,972.64
2023-02-02T21:59:41.985Z,972.58
2023-02-02T22:14:44.133Z,972.62
2023-02-02T22:29:46.299Z,972.5
2023-02-02T22:44:48.467Z,972.46
2023-02-02T22:59:50.601Z,972.55
2023-02-02T23:14:52.788Z,972.56
2023-02-02T23:29:54.987Z,972.62
2023-02-02T23:44:57.186Z,972.65
2023-02-02T23:59:59.517Z,972.68
